• Join FlightAware (Why Join?)
  • Login
  • US Flag 
06:27PM EST


 

Airport Tracker/Info


-or-


 

Live Flight TrackerFlight Track Log ✈ SKW4542 ✈ 24-Apr-2013 ✈ KSLC - KIDA

Flight Track Log - Related Links

Times and Time Zones

All times are in EDT time to prevent confusion due to time zone crossing. See the SKW4542 flight status page for this flight to view local times or setup timezone preferences in your user account.

Time Position Orientation Groundspeed Altitude Reporting Facility
EDT Latitude Longitude Course Direction KTS MPH feet Rate Location/Type
07:19PM 40.8075 -111.9619 13° North 169 194 5,200  Level Salt Lake Center
07:20PM 40.8519 -111.9694 353° North 206 237 6,700 2,160 Climbing Salt Lake Center
07:21PM 40.9183 -111.9781 354° North 247 284 9,200 2,100 Climbing Salt Lake Center
07:21PM 40.9256 -111.9797 350° North 245 282 9,400 2,280 Climbing Salt Lake Center
07:22PM 41.1820 -111.8558 43° Northeast  Level FlightAware Approximate
07:22PM 41.0031 -111.9922 353° North 276 318 12,200  Level Salt Lake Center
07:23PM 41.2746 -111.7794 21° North  Level FlightAware Approximate
07:23PM 41.0856 -112.0014 355° North 306 352 14,000  Level Salt Lake Center
07:24PM 41.3684 -111.6995 13° North  Level FlightAware Approximate
07:24PM 41.1508 -111.9183 44° Northeast 321 369 16,200  Level Salt Lake Center
07:25PM 41.2356 -111.8183 42° Northeast 337 388 18,300 1,860 Climbing Salt Lake Center
07:26PM 41.3225 -111.7650 25° Northeast 343 395 20,100 1,500 Climbing Salt Lake Center
07:27PM 41.4197 -111.7769 355° North 351 404 21,500 1,320 Climbing Salt Lake Center
07:28PM 41.5208 -111.7906 354° North 364 419 22,900 1,260 Climbing Salt Lake Center
07:29PM 41.6211 -111.8036 354° North 364 419 24,200 1,080 Climbing Salt Lake Center
07:30PM 41.7247 -111.8172 354° North 374 430 25,200 840 Climbing Salt Lake Center
07:31PM 41.8300 -111.8331 354° North 381 438 26,000 360 Climbing Salt Lake Center
07:32PM 41.9642 -111.8506 354° North 404 465 26,000  Level Salt Lake Center
07:33PM 42.0783 -111.8667 354° North 412 474 26,000  Level Salt Lake Center
07:34PM 42.1931 -111.8819 354° North 414 476 26,000  Level Salt Lake Center
07:35PM 42.3047 -111.8972 354° North 406 467 26,000  Level Salt Lake Center
07:36PM 42.4172 -111.9144 354° North 405 466 26,000  Level Salt Lake Center
07:37PM 42.5289 -111.9286 355° North 404 465 26,000 -1,080 Level Salt Lake Center
07:38PM 42.6644 -111.9486 354° North 409 471 23,800 -2,280 Descending Salt Lake Center
07:39PM 42.7617 -111.9603 355° North 396 456 21,300 -2,700 Descending Salt Lake Center
07:40PM 42.8747 -111.9767 354° North 368 423 18,300 -2,640 Descending Salt Lake Center
07:41PM 42.9675 -111.9897 354° North 354 407 15,900 -2,700 Descending Salt Lake Center
07:43PM 43.0722 -112.0017 355° North 341 392 12,800 -1,920 Descending Salt Lake Center
07:44PM 43.1558 -112.0156 353° North 322 371 12,000 -1,080 Descending Salt Lake Center
07:45PM 43.2453 -112.0108 North 294 338 10,600 -1,320 Descending Salt Lake Center
07:46PM 43.3200 -112.0086 North 288 331 9,300 -1,380 Descending Salt Lake Center
07:47PM 43.3989 -112.0042 North 269 310 7,800 -1,500 Descending Salt Lake Center